Time;durP1;ratioP1;P1;durP2;ratioP2;P2;SDS_P1;SDS_P2;PMS_P1;PMS_P2;Temp;Humidity;BMP_temperature;BMP_pressure;BME280_temperature;BME280_humidity;BME280_pressure;Samples;Min_cycle;Max_cycle;Signal;HPM_P1;HPM_P2
2022/11/04 00:01:36;;;;;;;7.60;3.00;;;;;;;5.26;100.00;99375.69;5052730;28;20111;-64
2022/11/04 00:04:01;;;;;;;11.35;4.45;;;;;;;5.34;100.00;99385.28;5056905;28;20497;-65
2022/11/04 00:06:27;;;;;;;8.52;3.33;;;;;;;5.38;100.00;99386.56;5056039;28;20035;-65
2022/11/04 00:08:54;;;;;;;5.93;3.33;;;;;;;5.40;100.00;99398.53;5050258;28;20053;-64
2022/11/04 00:14:06;;;;;;;7.43;3.92;;;;;;;5.35;100.00;99400.91;5048580;28;20126;-65
2022/11/04 00:19:16;;;;;;;9.27;3.47;;;;;;;5.52;100.00;99409.38;5058779;28;20389;-65
2022/11/04 00:30:11;;;;;;;10.20;3.88;;;;;;;5.55;100.00;99416.91;5052622;28;20048;-65
2022/11/04 00:35:22;;;;;;;5.75;4.07;;;;;;;5.62;100.00;99424.88;5059668;28;20031;-66
2022/11/04 00:37:47;;;;;;;7.40;2.97;;;;;;;5.62;100.00;99430.13;5045771;28;20025;-65
2022/11/04 00:40:15;;;;;;;10.30;2.97;;;;;;;5.67;100.00;99435.66;5057131;28;20036;-65
2022/11/04 00:42:43;;;;;;;6.38;3.10;;;;;;;5.68;100.00;99434.66;5057323;28;20029;-65
2022/11/04 00:45:09;;;;;;;5.97;3.17;;;;;;;5.71;100.00;99439.56;5052422;28;20151;-65
2022/11/04 00:47:34;;;;;;;7.85;3.13;;;;;;;5.69;100.00;99441.53;5056275;28;20534;-65
2022/11/04 00:49:59;;;;;;;6.82;2.92;;;;;;;5.75;100.00;99442.63;5034417;28;20505;-65
2022/11/04 00:52:25;;;;;;;8.68;3.85;;;;;;;5.79;100.00;99449.16;5054536;28;20466;-65
2022/11/04 00:54:50;;;;;;;8.95;3.58;;;;;;;5.79;100.00;99455.22;5058102;28;20032;-65
2022/11/04 00:57:15;;;;;;;9.18;3.83;;;;;;;5.78;100.00;99450.97;5059708;28;20102;-65
2022/11/04 00:59:41;;;;;;;9.57;3.40;;;;;;;5.81;100.00;99455.06;5061809;28;20029;-65
2022/11/04 01:02:08;;;;;;;9.77;5.65;;;;;;;5.85;100.00;99458.91;5053086;28;20021;-66
2022/11/04 01:04:34;;;;;;;6.10;3.28;;;;;;;5.85;100.00;99467.63;5055082;28;20039;-65
2022/11/04 01:06:59;;;;;;;7.35;3.88;;;;;;;5.85;100.00;99478.16;5059319;28;20482;-65
2022/11/04 01:09:25;;;;;;;6.25;3.22;;;;;;;5.88;100.00;99474.34;5058452;28;20055;-66
2022/11/04 01:11:50;;;;;;;4.55;2.92;;;;;;;5.91;100.00;99476.59;5057288;28;20458;-65
2022/11/04 01:14:15;;;;;;;6.90;2.40;;;;;;;5.91;100.00;99473.97;5038756;28;20135;-65
2022/11/04 01:16:41;;;;;;;8.77;4.00;;;;;;;5.93;100.00;99482.50;5057349;28;20043;-65
2022/11/04 01:19:06;;;;;;;6.25;2.45;;;;;;;5.90;100.00;99486.31;5058830;28;20477;-65
2022/11/04 01:21:32;;;;;;;7.50;3.42;;;;;;;5.90;100.00;99496.03;5058199;28;20122;-65
2022/11/04 01:23:58;;;;;;;5.82;4.40;;;;;;;5.93;100.00;99500.09;5063173;28;20036;-66
2022/11/04 01:26:25;;;;;;;5.65;2.65;;;;;;;5.92;100.00;99501.09;5054172;28;20033;-66
2022/11/04 01:28:53;;;;;;;5.45;3.67;;;;;;;5.88;100.00;99498.81;5061843;28;20484;-65
2022/11/04 01:31:25;;;;;;;6.65;2.53;;;;;;;5.86;100.00;99506.09;5067371;28;20564;-66
2022/11/04 01:33:52;;;;;;;8.00;2.65;;;;;;;5.86;100.00;99510.53;5068262;28;20032;-65
2022/11/04 01:36:18;;;;;;;3.95;2.50;;;;;;;5.83;100.00;99516.97;5065607;28;20506;-65
2022/11/04 01:38:44;;;;;;;10.25;3.75;;;;;;;5.78;100.00;99524.63;5062705;28;20111;-65
2022/11/04 01:41:29;;;;;;;2.92;1.95;;;;;;;5.78;100.00;99535.16;5050002;28;20303;-65
2022/11/04 01:43:56;;;;;;;6.78;3.17;;;;;;;5.74;100.00;99533.88;5058184;28;20025;-65
2022/11/04 01:46:46;;;;;;;6.90;3.20;;;;;;;5.69;100.00;99539.66;5058494;28;20036;-65
2022/11/04 01:49:34;;;;;;;5.70;2.15;;;;;;;5.62;100.00;99545.84;5069535;28;20029;-65
2022/11/04 01:52:04;;;;;;;5.28;3.05;;;;;;;5.60;100.00;99548.66;5054124;28;20033;-66
2022/11/04 01:54:30;;;;;;;7.70;3.55;;;;;;;5.58;100.00;99560.38;5068273;28;20486;-65
2022/11/04 01:56:59;;;;;;;8.93;3.83;;;;;;;5.57;100.00;99569.22;5057801;28;20048;-65
2022/11/04 01:59:29;;;;;;;4.22;1.90;;;;;;;5.53;100.00;99567.97;5061561;28;20107;-65
2022/11/04 02:01:54;;;;;;;3.28;1.77;;;;;;;5.50;100.00;99579.66;5056923;28;20063;-65
2022/11/04 02:04:26;;;;;;;3.58;1.45;;;;;;;5.46;100.00;99579.19;5057501;28;20060;-65
2022/11/04 02:06:57;;;;;;;7.30;1.73;;;;;;;5.42;100.00;99585.81;5063266;28;20111;-65
2022/11/04 02:09:24;;;;;;;1.45;1.08;;;;;;;5.41;100.00;99597.31;5063863;28;20031;-65
2022/11/04 02:14:34;;;;;;;6.53;2.72;;;;;;;5.28;100.00;99599.75;5066009;28;20044;-65
2022/11/04 02:17:52;;;;;;;3.03;1.38;;;;;;;5.27;100.00;99600.75;5040256;28;20119;-65
2022/11/04 02:20:26;;;;;;;5.63;1.20;;;;;;;5.24;100.00;99611.63;5038612;28;20049;-65
2022/11/04 02:23:10;;;;;;;5.68;1.48;;;;;;;5.23;100.00;99620.50;5063513;28;20032;-65
2022/11/04 02:25:51;;;;;;;4.93;3.03;;;;;;;5.21;100.00;99627.72;5054759;28;20029;-65
2022/11/04 02:28:50;;;;;;;2.60;1.30;;;;;;;5.24;100.00;99630.03;5064658;28;20056;-65
2022/11/04 02:31:37;;;;;;;2.10;1.15;;;;;;;5.29;100.00;99639.97;5046827;28;20059;-65
2022/11/04 02:34:18;;;;;;;6.65;2.33;;;;;;;5.31;100.00;99638.00;5057225;28;20506;-65
2022/11/04 02:37:11;;;;;;;7.85;3.33;;;;;;;5.28;100.00;99647.06;5058286;28;20020;-65
2022/11/04 02:39:53;;;;;;;11.73;2.60;;;;;;;5.24;100.00;99665.00;5057260;28;20386;-65
2022/11/04 02:42:29;;;;;;;6.70;3.08;;;;;;;5.19;100.00;99677.03;5061451;28;20033;-66
2022/11/04 02:45:09;;;;;;;7.05;2.78;;;;;;;5.30;100.00;99679.25;5035184;28;20127;-65
2022/11/04 02:47:39;;;;;;;6.07;2.50;;;;;;;5.31;100.00;99691.38;5063191;28;20108;-65
2022/11/04 02:50:20;;;;;;;6.28;2.67;;;;;;;5.28;100.00;99693.56;5060900;28;20506;-65
2022/11/04 02:53:02;;;;;;;7.28;2.60;;;;;;;5.18;100.00;99697.22;5036135;28;20056;-66
2022/11/04 02:55:37;;;;;;;;;;;;;;;5.18;100.00;99696.41;5059516;28;20036;-65
2022/11/04 02:58:06;;;;;;;5.28;3.03;;;;;;;5.25;100.00;99700.78;5052146;28;20015;-65
2022/11/04 03:00:33;;;;;;;4.20;3.20;;;;;;;5.20;100.00;99713.66;5042436;28;20028;-65
2022/11/04 03:03:03;;;;;;;11.00;3.17;;;;;;;5.14;100.00;99700.41;5044681;28;20432;-65
2022/11/04 03:05:36;;;;;;;7.03;4.32;;;;;;;5.07;100.00;99699.47;5056063;28;20029;-66
2022/11/04 03:08:09;;;;;;;8.70;3.63;;;;;;;5.00;100.00;99705.38;5053924;28;20028;-65
2022/11/04 03:10:42;;;;;;;5.85;2.92;;;;;;;4.98;100.00;99696.88;5064020;28;20032;-65
2022/11/04 03:13:15;;;;;;;6.93;4.47;;;;;;;4.94;100.00;99700.84;5057150;28;20425;-65
2022/11/04 03:16:08;;;;;;;9.93;4.53;;;;;;;4.93;100.00;99706.25;5053847;28;20067;-65
2022/11/04 03:18:48;;;;;;;8.68;4.40;;;;;;;4.94;100.00;99723.66;5063592;28;20412;-65
2022/11/04 03:21:15;;;;;;;5.25;3.35;;;;;;;5.00;100.00;99731.66;5058279;28;20056;-66
2022/11/04 03:23:41;;;;;;;7.05;4.05;;;;;;;4.97;100.00;99737.28;5054502;28;20040;-65
2022/11/04 03:26:39;;;;;;;9.13;5.35;;;;;;;4.81;100.00;99740.00;5033009;28;20052;-65
2022/11/04 03:29:20;;;;;;;7.13;4.28;;;;;;;4.84;100.00;99757.22;5063250;28;20883;-65
2022/11/04 03:31:59;;;;;;;5.75;2.83;;;;;;;4.85;100.00;99762.28;5060011;28;20032;-66
2022/11/04 03:34:24;;;;;;;5.47;2.60;;;;;;;4.69;100.00;99771.06;5058182;28;20037;-65
2022/11/04 03:36:50;;;;;;;10.35;3.75;;;;;;;4.64;100.00;99767.31;5061031;28;20364;-65
2022/11/04 03:39:15;;;;;;;5.93;2.85;;;;;;;4.72;100.00;99768.09;5062804;28;20028;-65
2022/11/04 03:41:51;;;;;;;10.02;4.63;;;;;;;4.73;100.00;99772.38;5044101;28;20021;-66
2022/11/04 03:44:16;;;;;;;3.85;3.33;;;;;;;4.65;100.00;99771.59;5060924;28;20036;-65
2022/11/04 03:46:42;;;;;;;5.85;3.10;;;;;;;4.67;100.00;99772.22;5058544;28;20025;-65
2022/11/04 03:49:09;;;;;;;6.55;3.90;;;;;;;4.55;100.00;99769.16;5057475;28;20546;-65
2022/11/04 03:51:35;;;;;;;5.07;3.08;;;;;;;4.58;100.00;99760.94;5057524;28;20029;-65
2022/11/04 03:54:00;;;;;;;9.43;4.28;;;;;;;4.69;100.00;99778.13;5059019;28;20037;-65
2022/11/04 03:56:54;;;;;;;9.52;3.75;;;;;;;4.64;100.00;99780.44;5057173;28;20107;-65
2022/11/04 03:59:38;;;;;;;4.18;2.75;;;;;;;4.49;100.00;99799.53;5026640;28;20076;-65
2022/11/04 04:02:22;;;;;;;5.35;2.55;;;;;;;4.51;100.00;99800.16;5059296;28;20025;-65
2022/11/04 04:05:01;;;;;;;8.15;3.63;;;;;;;4.42;100.00;99801.19;5042085;28;20053;-66
2022/11/04 04:07:38;;;;;;;4.35;2.38;;;;;;;4.33;100.00;99802.16;5055131;28;20030;-66
2022/11/04 04:10:38;;;;;;;5.53;3.20;;;;;;;4.21;100.00;99808.75;5045105;28;20021;-65
2022/11/04 04:13:26;;;;;;;5.15;2.42;;;;;;;4.19;100.00;99811.53;5045946;28;20044;-65
2022/11/04 04:16:02;;;;;;;11.77;4.22;;;;;;;4.25;100.00;99820.56;5060565;28;20027;-65
2022/11/04 04:18:43;;;;;;;8.23;2.78;;;;;;;4.17;100.00;99826.63;5053088;28;20509;-65
2022/11/04 04:21:15;;;;;;;6.25;3.03;;;;;;;4.15;100.00;99847.78;5063958;28;20386;-65
2022/11/04 04:29:17;;;;;;;4.53;2.25;;;;;;;4.01;100.00;99848.44;5057116;28;20055;-65
2022/11/04 04:31:49;;;;;;;3.85;3.30;;;;;;;3.91;100.00;99850.41;5063691;28;20039;-66
2022/11/04 04:34:18;;;;;;;8.10;3.83;;;;;;;3.93;100.00;99861.56;5059875;28;20031;-65
2022/11/04 04:37:04;;;;;;;4.15;2.30;;;;;;;3.99;100.00;99868.78;5034573;28;20401;-66
2022/11/04 04:45:05;;;;;;;7.03;2.92;;;;;;;3.93;100.00;99891.22;5059673;28;20361;-65
2022/11/04 04:47:34;;;;;;;15.20;5.28;;;;;;;3.93;100.00;99895.66;5065894;28;20031;-66
2022/11/04 04:50:00;;;;;;;5.07;3.03;;;;;;;3.97;100.00;99901.41;5057159;28;20036;-66
2022/11/04 04:52:29;;;;;;;4.00;2.15;;;;;;;4.04;100.00;99911.06;5053226;28;20436;-65
2022/11/04 04:54:55;;;;;;;9.25;2.88;;;;;;;3.98;100.00;99916.97;5040447;28;20028;-65
2022/11/04 04:57:21;;;;;;;8.52;4.50;;;;;;;4.19;100.00;99923.56;5049765;28;20492;-65
2022/11/04 04:59:46;;;;;;;9.60;4.93;;;;;;;4.30;100.00;99931.09;5050381;28;20497;-65
2022/11/04 05:02:12;;;;;;;10.20;4.28;;;;;;;4.29;100.00;99937.34;5053713;28;20029;-65
2022/11/04 05:04:37;;;;;;;5.95;4.43;;;;;;;4.23;100.00;99940.59;5052550;28;20029;-65
2022/11/04 05:07:02;;;;;;;11.80;4.72;;;;;;;4.24;100.00;99952.78;5051837;28;20529;-65
2022/11/04 05:09:28;;;;;;;7.97;4.07;;;;;;;4.22;100.00;99967.84;5055760;28;20507;-65
2022/11/04 05:11:53;;;;;;;7.45;3.78;;;;;;;4.13;100.00;99972.25;5055105;28;20028;-65
2022/11/04 05:14:18;;;;;;;14.70;5.10;;;;;;;4.12;100.00;99978.50;5059321;28;20039;-65
2022/11/04 05:16:44;;;;;;;13.80;4.60;;;;;;;4.01;100.00;99984.88;5060704;28;20043;-65
2022/11/04 05:19:09;;;;;;;8.57;4.28;;;;;;;3.90;100.00;99987.78;5054600;28;20299;-65
2022/11/04 05:21:34;;;;;;;5.03;2.72;;;;;;;3.77;100.00;99995.28;5057558;28;20107;-65
2022/11/04 05:24:00;;;;;;;8.02;5.03;;;;;;;3.78;100.00;99996.94;5052548;28;20095;-67
2022/11/04 05:26:25;;;;;;;7.28;4.45;;;;;;;3.91;100.00;99999.91;5052109;28;20260;-66
2022/11/04 05:28:50;;;;;;;9.85;4.10;;;;;;;4.00;100.00;100004.22;5052642;28;20063;-66
2022/11/04 05:31:16;;;;;;;10.38;3.47;;;;;;;3.96;100.00;100002.06;5058935;28;20029;-66
2022/11/04 05:33:41;;;;;;;7.82;3.45;;;;;;;3.87;100.00;100014.31;5059842;28;20029;-66
2022/11/04 05:36:09;;;;;;;3.28;2.20;;;;;;;3.72;100.00;100025.44;5054547;28;20112;-66
2022/11/04 05:38:35;;;;;;;4.57;2.47;;;;;;;3.70;100.00;100031.81;5054230;28;20036;-66
2022/11/04 05:41:00;;;;;;;8.07;4.35;;;;;;;3.82;100.00;100037.56;5055511;28;20472;-66
2022/11/04 05:43:26;;;;;;;10.55;2.65;;;;;;;3.87;100.00;100035.31;5053793;28;20031;-66
2022/11/04 05:45:51;;;;;;;7.50;2.80;;;;;;;3.76;100.00;100051.31;5053565;28;20119;-66
2022/11/04 05:48:17;;;;;;;8.85;2.00;;;;;;;3.61;100.00;100051.91;5061998;28;20039;-66
2022/11/04 05:50:42;;;;;;;7.78;3.55;;;;;;;3.51;100.00;100048.56;5057972;28;20544;-66
2022/11/04 05:53:07;;;;;;;10.90;3.20;;;;;;;3.56;100.00;100056.78;5056556;28;20052;-67
2022/11/04 05:55:33;;;;;;;6.50;2.55;;;;;;;3.57;100.00;100060.25;5063476;28;20075;-66
2022/11/04 05:57:58;;;;;;;10.85;3.95;;;;;;;3.53;100.00;100057.09;5059681;28;20040;-66
2022/11/04 06:00:25;;;;;;;8.38;2.17;;;;;;;3.62;100.00;100065.84;5059183;28;20104;-66
2022/11/04 06:02:50;;;;;;;4.90;2.47;;;;;;;3.54;100.00;100082.38;5057213;28;20037;-66
2022/11/04 06:05:16;;;;;;;17.38;3.53;;;;;;;3.49;100.00;100092.50;5066282;28;20036;-66
2022/11/04 06:07:41;;;;;;;6.25;1.60;;;;;;;3.36;100.00;100094.69;5054831;28;20111;-66
2022/11/04 06:10:07;;;;;;;2.90;1.85;;;;;;;3.24;100.00;100105.41;5056951;28;20036;-66
2022/11/04 06:12:32;;;;;;;8.20;4.05;;;;;;;3.11;100.00;100105.00;5053719;28;20036;-66
2022/11/04 06:14:57;;;;;;;8.68;4.28;;;;;;;2.99;100.00;100121.91;5059641;28;20036;-66
2022/11/04 06:17:23;;;;;;;6.18;3.60;;;;;;;2.97;100.00;100123.84;5059541;28;20028;-66
2022/11/04 06:19:49;;;;;;;6.13;2.22;;;;;;;2.98;100.00;100125.50;5037897;28;20044;-66
2022/11/04 06:22:17;;;;;;;6.25;3.38;;;;;;;3.00;100.00;100134.88;5055677;28;20033;-66
2022/11/04 06:24:42;;;;;;;3.55;1.92;;;;;;;3.33;100.00;100152.63;5060074;28;20028;-66
2022/11/04 06:27:09;;;;;;;7.47;3.42;;;;;;;3.43;100.00;100154.22;5054635;28;20067;-66
2022/11/04 06:29:40;;;;;;;8.23;3.05;;;;;;;3.53;100.00;100161.97;5050665;28;20081;-67
2022/11/04 06:32:10;;;;;;;3.80;2.55;;;;;;;3.48;100.00;100170.31;5061025;28;20033;-66
2022/11/04 06:34:35;;;;;;;8.25;3.70;;;;;;;3.48;100.00;100172.09;5067492;28;20048;-67
2022/11/04 06:37:01;;;;;;;8.80;3.53;;;;;;;3.52;100.00;100183.94;5035404;28;20155;-67
2022/11/04 06:39:26;;;;;;;7.25;3.90;;;;;;;3.50;100.00;100185.88;5058934;28;20386;-66
2022/11/04 06:41:51;;;;;;;6.18;3.13;;;;;;;3.43;100.00;100196.16;5061246;28;20032;-66
2022/11/04 06:44:17;;;;;;;4.47;3.08;;;;;;;3.41;100.00;100200.72;5064622;28;20175;-66
2022/11/04 06:46:42;;;;;;;10.63;5.28;;;;;;;3.45;100.00;100209.91;5063027;28;20024;-66
2022/11/04 06:49:17;;;;;;;7.85;2.92;;;;;;;3.45;100.00;100224.81;5043070;28;20047;-66
2022/11/04 06:51:43;;;;;;;11.25;4.95;;;;;;;3.42;100.00;100235.63;5049599;28;20578;-66
2022/11/04 06:54:09;;;;;;;9.30;4.38;;;;;;;3.41;100.00;100239.22;5058697;28;20034;-66
2022/11/04 06:56:35;;;;;;;10.35;4.53;;;;;;;3.38;100.00;100242.13;5056853;28;20044;-66
2022/11/04 06:59:01;;;;;;;8.68;5.00;;;;;;;3.49;100.00;100255.00;5059343;28;20025;-67
2022/11/04 07:01:28;;;;;;;5.22;3.38;;;;;;;3.44;100.00;100257.25;5055110;28;20032;-66
2022/11/04 07:03:57;;;;;;;7.53;4.70;;;;;;;3.42;100.00;100265.25;5059018;28;20035;-66
2022/11/04 07:06:23;;;;;;;14.13;5.43;;;;;;;3.38;100.00;100265.69;5059568;28;20092;-66
2022/11/04 07:08:49;;;;;;;10.32;5.00;;;;;;;3.33;100.00;100276.66;5039186;28;20428;-67
2022/11/04 07:11:17;;;;;;;7.68;4.70;;;;;;;3.38;100.00;100294.53;5053174;28;20033;-67
2022/11/04 07:13:42;;;;;;;8.18;4.63;;;;;;;3.37;100.00;100300.75;5039354;28;20025;-66
2022/11/04 07:16:08;;;;;;;12.90;4.88;;;;;;;3.32;100.00;100305.63;5058220;28;20052;-66
2022/11/04 07:18:34;;;;;;;6.97;4.63;;;;;;;3.31;100.00;100309.22;5051120;28;20048;-66
2022/11/04 07:21:00;;;;;;;19.38;5.88;;;;;;;3.20;100.00;100313.72;5038518;28;20552;-66
2022/11/04 07:23:25;;;;;;;10.77;5.20;;;;;;;3.19;100.00;100314.66;5061119;28;20031;-67
2022/11/04 07:25:53;;;;;;;10.45;5.07;;;;;;;3.25;100.00;100321.09;5055806;28;20036;-66
2022/11/04 07:28:18;;;;;;;12.63;5.00;;;;;;;3.31;100.00;100327.56;5054975;28;20076;-67
2022/11/04 07:30:44;;;;;;;15.10;6.88;;;;;;;3.44;100.00;100338.53;5053639;28;20067;-67
2022/11/04 07:33:09;;;;;;;10.63;6.60;;;;;;;3.36;100.00;100348.91;5054137;28;20020;-66
2022/11/04 07:35:35;;;;;;;14.52;6.22;;;;;;;3.32;100.00;100348.38;5056193;28;20101;-67
2022/11/04 07:38:02;;;;;;;12.68;7.35;;;;;;;3.33;100.00;100350.03;5059370;28;20029;-66
2022/11/04 07:40:28;;;;;;;11.35;7.47;;;;;;;3.38;100.00;100346.94;5061376;28;20039;-67
2022/11/04 07:42:53;;;;;;;12.18;5.88;;;;;;;3.39;100.00;100354.69;5062668;28;20032;-66
2022/11/04 07:45:19;;;;;;;11.73;5.63;;;;;;;3.47;100.00;100353.94;5051077;28;20025;-66
2022/11/04 07:47:44;;;;;;;12.27;5.05;;;;;;;3.45;100.00;100356.69;5047131;28;20033;-66
2022/11/04 07:50:10;;;;;;;8.93;5.47;;;;;;;3.39;100.00;100365.16;5050693;28;20032;-67
2022/11/04 07:52:35;;;;;;;9.60;4.60;;;;;;;3.47;100.00;100377.53;5053014;28;20033;-66
2022/11/04 07:55:00;;;;;;;12.45;5.38;;;;;;;3.57;100.00;100377.47;5056825;28;20040;-66
2022/11/04 07:57:28;;;;;;;9.93;6.28;;;;;;;3.60;100.00;100388.50;5051813;28;20031;-66
2022/11/04 07:59:53;;;;;;;12.90;4.57;;;;;;;3.64;100.00;100389.84;5057536;28;20521;-66
2022/11/04 08:02:18;;;;;;;12.25;4.95;;;;;;;3.65;100.00;100386.25;5059125;28;20063;-67
2022/11/04 08:04:44;;;;;;;8.93;4.32;;;;;;;3.68;100.00;100399.06;5058080;28;20378;-66
2022/11/04 08:07:09;;;;;;;14.35;6.75;;;;;;;3.81;100.00;100411.00;5043506;28;20029;-66
2022/11/04 08:09:35;;;;;;;12.52;5.00;;;;;;;3.86;100.00;100416.63;5049014;28;20071;-66
2022/11/04 08:12:01;;;;;;;13.10;5.72;;;;;;;3.91;100.00;100428.31;5053757;28;20029;-66
2022/11/04 08:14:26;;;;;;;16.98;7.13;;;;;;;3.99;100.00;100435.44;5050190;28;20025;-66
2022/11/04 08:16:52;;;;;;;12.05;4.10;;;;;;;4.03;100.00;100436.78;5052099;28;20494;-66
2022/11/04 08:19:17;;;;;;;12.32;6.85;;;;;;;4.06;100.00;100436.50;5052075;28;20875;-66
2022/11/04 08:21:42;;;;;;;15.10;5.53;;;;;;;4.08;100.00;100444.19;5042712;28;20118;-66
2022/11/04 08:24:08;;;;;;;10.85;5.47;;;;;;;4.08;100.00;100458.16;5052642;28;20029;-66
2022/11/04 08:26:33;;;;;;;13.45;6.75;;;;;;;4.10;100.00;100453.56;5047546;28;20040;-66
2022/11/04 08:29:01;;;;;;;22.15;5.30;;;;;;;4.12;100.00;100470.00;5050943;28;20044;-67
2022/11/04 08:31:29;;;;;;;11.15;6.65;;;;;;;4.18;100.00;100468.56;5057928;28;20027;-66
2022/11/04 08:33:55;;;;;;;16.00;6.60;;;;;;;4.32;100.00;100485.59;5067849;28;20040;-66
2022/11/04 08:36:27;;;;;;;13.85;5.90;;;;;;;4.49;100.00;100491.81;5055856;28;20099;-66
2022/11/04 08:38:53;;;;;;;11.80;5.05;;;;;;;4.54;100.00;100497.44;5054127;28;20028;-67
2022/11/04 08:41:22;;;;;;;9.68;6.25;;;;;;;4.57;100.00;100502.41;5065606;28;20440;-67
2022/11/04 08:43:48;;;;;;;13.95;5.70;;;;;;;4.46;100.00;100494.75;5058541;28;20385;-66
2022/11/04 08:46:14;;;;;;;11.68;6.25;;;;;;;4.38;100.00;100506.81;5059200;28;20040;-66
2022/11/04 08:48:41;;;;;;;12.13;5.00;;;;;;;4.34;100.00;100496.78;5052858;28;20043;-66
2022/11/04 08:51:12;;;;;;;8.57;5.47;;;;;;;4.36;100.00;100495.66;5046004;28;20035;-66
2022/11/04 08:53:37;;;;;;;12.77;5.90;;;;;;;4.31;100.00;100502.31;5050471;28;20119;-66
2022/11/04 08:56:17;;;;;;;6.43;4.75;;;;;;;4.40;100.00;100498.81;5046299;28;20171;-66
2022/11/04 08:58:42;;;;;;;10.80;4.28;;;;;;;4.46;100.00;100485.06;5054303;28;20032;-66
2022/11/04 09:01:09;;;;;;;11.82;6.28;;;;;;;4.58;100.00;100493.53;5042711;28;20029;-66
2022/11/04 09:03:37;;;;;;;11.85;5.93;;;;;;;4.70;100.00;100496.75;5071489;28;20028;-66
2022/11/04 09:06:03;;;;;;;20.70;4.88;;;;;;;4.79;100.00;100493.22;5060618;28;20249;-67
2022/11/04 09:08:29;;;;;;;10.80;5.72;;;;;;;4.90;100.00;100495.56;5050475;28;20040;-66
2022/11/04 09:10:54;;;;;;;8.93;3.50;;;;;;;4.97;100.00;100498.44;5061733;28;20024;-66
2022/11/04 09:13:19;;;;;;;14.63;5.00;;;;;;;5.08;100.00;100498.16;5060179;28;20021;-67
2022/11/04 09:15:44;;;;;;;13.50;4.40;;;;;;;5.20;100.00;100498.75;5054986;28;20037;-67
2022/11/04 09:18:10;;;;;;;18.25;4.00;;;;;;;5.32;100.00;100502.75;5055864;28;20028;-66
2022/11/04 09:20:38;;;;;;;11.13;4.80;;;;;;;5.42;100.00;100502.63;5055509;28;20488;-66
2022/11/04 09:23:04;;;;;;;7.57;4.35;;;;;;;5.56;100.00;100498.59;5058353;28;20025;-66
2022/11/04 09:25:31;;;;;;;9.93;3.97;;;;;;;5.65;100.00;100497.63;5060288;28;20028;-66
2022/11/04 09:27:57;;;;;;;19.08;4.20;;;;;;;5.73;100.00;100508.22;5053373;28;20052;-66
2022/11/04 09:30:22;;;;;;;11.30;5.47;;;;;;;5.83;100.00;100500.97;5057992;28;20359;-66
2022/11/04 09:32:48;;;;;;;11.77;2.95;;;;;;;5.93;100.00;100506.13;5054793;28;20091;-66
2022/11/04 09:35:15;;;;;;;10.18;3.75;;;;;;;6.03;100.00;100506.03;5061933;28;20048;-66
2022/11/04 09:37:40;;;;;;;13.85;3.40;;;;;;;6.14;100.00;100513.59;5055420;28;20029;-66
2022/11/04 09:40:13;;;;;;;18.15;4.75;;;;;;;6.28;100.00;100505.09;5059314;28;20063;-66
2022/11/04 09:42:49;;;;;;;7.43;2.92;;;;;;;6.41;100.00;100516.97;5057008;28;20375;-67
2022/11/04 09:45:17;;;;;;;10.90;5.35;;;;;;;6.55;100.00;100522.38;5060954;28;20029;-67
2022/11/04 09:47:46;;;;;;;11.95;4.13;;;;;;;6.64;100.00;100523.22;5062281;28;20025;-66
2022/11/04 09:50:32;;;;;;;7.88;3.38;;;;;;;6.71;100.00;100523.38;5056500;28;20041;-66
2022/11/04 09:53:08;;;;;;;9.88;3.58;;;;;;;6.74;100.00;100523.06;5066938;28;20556;-66
2022/11/04 09:55:54;;;;;;;10.82;3.22;;;;;;;6.77;100.00;100528.00;5061859;28;20378;-66
2022/11/04 09:58:20;;;;;;;13.77;3.47;;;;;;;6.89;100.00;100528.50;5063356;28;20385;-66
2022/11/04 10:01:30;;;;;;;10.27;3.03;;;;;;;7.05;100.00;100533.75;5057350;28;20043;-66
2022/11/04 10:04:21;;;;;;;9.32;3.20;;;;;;;7.21;100.00;100533.72;5066442;28;20033;-66
2022/11/04 10:06:46;;;;;;;8.43;3.20;;;;;;;7.28;100.00;100531.25;5054612;28;20082;-67
2022/11/04 10:09:12;;;;;;;14.77;4.47;;;;;;;7.30;100.00;100531.88;5050510;28;20037;-67
2022/11/04 10:12:04;;;;;;;11.82;3.40;;;;;;;7.50;100.00;100534.16;5070104;28;20025;-66
2022/11/04 10:14:53;;;;;;;8.85;4.53;;;;;;;7.56;100.00;100534.31;5051406;28;20405;-67
2022/11/04 10:17:30;;;;;;;10.43;2.70;;;;;;;7.63;100.00;100522.06;5051422;28;20121;-66
2022/11/04 10:20:11;;;;;;;9.25;3.60;;;;;;;7.70;100.00;100516.13;5046664;28;20093;-66
2022/11/04 10:22:46;;;;;;;10.77;4.25;;;;;;;7.88;100.00;100516.69;5056790;28;20386;-66
2022/11/04 10:25:20;;;;;;;7.55;1.90;;;;;;;7.92;100.00;100510.06;5059128;28;20060;-66
2022/11/04 10:27:47;;;;;;;11.75;3.58;;;;;;;8.01;100.00;100502.94;5038478;28;20076;-67
2022/11/04 10:30:24;;;;;;;9.45;2.72;;;;;;;8.16;100.00;100506.47;5056276;28;20473;-66
2022/11/04 10:33:12;;;;;;;10.23;2.17;;;;;;;8.35;100.00;100514.94;5056173;28;20030;-66
2022/11/04 10:35:56;;;;;;;9.65;3.13;;;;;;;8.34;100.00;100495.63;5063091;28;20036;-67
2022/11/04 10:38:41;;;;;;;13.60;2.50;;;;;;;8.54;100.00;100498.63;5057882;28;20098;-66
2022/11/04 10:41:25;;;;;;;8.07;1.95;;;;;;;8.72;100.00;100500.97;5054915;28;20112;-66
2022/11/04 10:44:04;;;;;;;21.88;2.72;;;;;;;8.80;100.00;100502.72;5067623;28;20059;-66
2022/11/04 10:46:41;;;;;;;5.75;1.35;;;;;;;8.87;100.00;100499.19;5061676;28;20115;-66
2022/11/04 10:49:43;;;;;;;2.67;1.15;;;;;;;8.94;100.00;100518.63;5055198;28;20025;-66
2022/11/04 10:52:09;;;;;;;6.95;1.40;;;;;;;8.83;100.00;100513.78;5054449;28;20555;-65
2022/11/04 10:54:43;;;;;;;6.40;0.73;;;;;;;8.96;100.00;100510.53;5043662;28;20033;-66
2022/11/04 10:57:11;;;;;;;12.05;1.27;;;;;;;9.09;100.00;100507.28;5052692;28;20029;-66
2022/11/04 10:59:45;;;;;;;7.63;2.13;;;;;;;9.20;100.00;100513.94;5064140;28;20052;-66
2022/11/04 11:02:11;;;;;;;13.30;1.15;;;;;;;9.31;100.00;100511.66;5063699;28;20032;-65
2022/11/04 11:04:39;;;;;;;7.43;2.05;;;;;;;9.34;100.00;100515.75;5063443;28;20017;-67
2022/11/04 11:07:08;;;;;;;5.15;0.63;;;;;;;9.41;100.00;100521.16;5054121;28;20599;-66
2022/11/04 11:09:59;;;;;;;6.95;1.58;;;;;;;9.34;100.00;100513.09;5052784;28;20024;-65
2022/11/04 11:12:39;;;;;;;4.03;1.17;;;;;;;9.39;100.00;100502.81;5056550;28;20033;-66
2022/11/04 11:15:26;;;;;;;3.40;1.35;;;;;;;9.60;100.00;100517.94;5059007;28;20044;-66
2022/11/04 11:18:06;;;;;;;4.88;0.43;;;;;;;9.72;100.00;100526.25;5053927;28;20067;-66
2022/11/04 11:20:36;;;;;;;10.73;2.28;;;;;;;9.72;100.00;100518.31;5056967;28;20039;-66
2022/11/04 11:23:08;;;;;;;4.97;1.00;;;;;;;9.61;100.00;100527.53;5061852;28;20456;-65
2022/11/04 11:25:35;;;;;;;3.65;0.70;;;;;;;9.64;100.00;100521.88;5064372;28;20500;-65
2022/11/04 11:28:19;;;;;;;7.68;0.95;;;;;;;9.72;100.00;100532.38;5060735;28;20037;-65
2022/11/04 11:30:45;;;;;;;4.30;1.15;;;;;;;9.77;100.00;100527.34;5059980;28;20122;-65
2022/11/04 11:33:16;;;;;;;4.32;0.63;;;;;;;9.94;100.00;100543.84;5074179;28;20032;-64
2022/11/04 11:35:50;;;;;;;7.63;1.05;;;;;;;9.98;100.00;100531.88;5064258;28;20397;-65
2022/11/04 11:38:23;;;;;;;3.53;0.75;;;;;;;10.11;100.00;100531.19;5067542;28;20025;-65
2022/11/04 11:40:51;;;;;;;6.20;0.77;;;;;;;10.19;100.00;100531.09;5039454;28;20078;-66
2022/11/04 11:43:30;;;;;;;3.00;0.75;;;;;;;10.05;100.00;100529.31;5064286;28;20040;-65
2022/11/04 11:45:58;;;;;;;2.58;1.00;;;;;;;10.08;100.00;100534.22;5042260;28;20020;-65
2022/11/04 11:48:27;;;;;;;2.33;0.20;;;;;;;10.11;100.00;100539.16;5051738;28;20063;-66
2022/11/04 11:50:57;;;;;;;2.70;0.40;;;;;;;10.25;100.00;100538.31;5055363;28;20024;-66
2022/11/04 11:53:24;;;;;;;3.92;0.50;;;;;;;10.26;100.00;100541.75;5048126;28;20029;-65
2022/11/04 11:55:55;;;;;;;3.70;0.60;;;;;;;10.20;100.00;100524.78;5057058;28;20024;-65
2022/11/04 11:58:34;;;;;;;6.28;1.27;;;;;;;10.23;100.00;100527.06;5052090;28;20025;-65
2022/11/04 12:01:10;;;;;;;3.50;0.22;;;;;;;10.41;100.00;100520.56;5048914;28;20060;-66
2022/11/04 12:03:42;;;;;;;1.48;0.50;;;;;;;10.57;100.00;100528.25;5053030;28;20036;-65
2022/11/04 12:06:47;;;;;;;3.90;0.40;;;;;;;10.63;100.00;100527.47;5057151;28;20036;-65
2022/11/04 12:09:18;;;;;;;0.98;0.40;;;;;;;10.78;100.00;100521.28;5036894;28;20119;-65
2022/11/04 12:12:02;;;;;;;0.88;0.22;;;;;;;10.72;100.00;100516.75;5057710;28;20028;-65
2022/11/04 12:14:45;;;;;;;9.45;1.38;;;;;;;10.81;100.00;100523.56;5054922;28;20060;-65